createdAt,value
2018-12-14T00:01:35.204Z,0.40
2018-12-14T00:04:04.634Z,0.40
2018-12-14T00:06:33.129Z,0.40
2018-12-14T00:09:02.430Z,0.40
2018-12-14T00:11:31.016Z,0.40
2018-12-14T00:13:59.723Z,0.40
2018-12-14T00:16:28.244Z,0.40
2018-12-14T00:18:57.267Z,0.40
2018-12-14T00:21:26.485Z,0.30
2018-12-14T00:23:55.897Z,0.30
2018-12-14T00:26:24.604Z,0.40
2018-12-14T00:28:53.345Z,0.40
2018-12-14T00:31:21.918Z,0.40
2018-12-14T00:33:50.550Z,0.40
2018-12-14T00:36:19.584Z,0.40
2018-12-14T00:38:48.122Z,0.40
2018-12-14T00:41:17.222Z,0.30
2018-12-14T00:43:46.110Z,0.30
2018-12-14T00:46:15.723Z,0.30
2018-12-14T00:48:44.368Z,0.30
2018-12-14T00:51:12.826Z,0.30
2018-12-14T00:53:41.414Z,0.30
2018-12-14T00:56:10.224Z,0.30
2018-12-14T00:58:38.764Z,0.20
2018-12-14T01:01:08.083Z,0.20
2018-12-14T01:03:36.583Z,0.10
2018-12-14T01:06:05.441Z,0.10
2018-12-14T01:08:34.082Z,0.10
2018-12-14T01:11:02.735Z,0.10
2018-12-14T01:13:31.457Z,0.10
2018-12-14T01:15:59.873Z,0.10
2018-12-14T01:18:36.435Z,0.10
2018-12-14T01:21:05.039Z,0.00
2018-12-14T01:23:33.781Z,0.00
2018-12-14T01:26:02.231Z,0.00
2018-12-14T01:28:30.866Z,0.00
2018-12-14T01:30:59.722Z,0.00
2018-12-14T01:33:28.626Z,0.00
2018-12-14T01:35:57.039Z,0.00
2018-12-14T01:38:25.749Z,0.00
2018-12-14T01:40:54.170Z,0.00
2018-12-14T01:43:23.251Z,-0.10
2018-12-14T01:46:00.482Z,0.00
2018-12-14T01:48:28.888Z,0.00
2018-12-14T01:50:59.019Z,-0.10
2018-12-14T01:53:27.451Z,-0.10
2018-12-14T01:55:56.335Z,-0.10
2018-12-14T01:58:24.732Z,-0.10
2018-12-14T02:00:54.865Z,-0.20
2018-12-14T02:03:23.325Z,-0.20
2018-12-14T02:05:52.149Z,-0.20
2018-12-14T02:08:20.644Z,-0.20
2018-12-14T02:10:49.044Z,-0.20
2018-12-14T02:13:17.486Z,-0.20
2018-12-14T02:15:45.929Z,-0.20
2018-12-14T02:18:14.637Z,-0.30
2018-12-14T02:20:43.575Z,-0.20
2018-12-14T02:23:12.007Z,-0.30
2018-12-14T02:25:40.446Z,-0.30
2018-12-14T02:28:09.091Z,-0.20
2018-12-14T02:30:42.871Z,-0.20
2018-12-14T02:33:12.487Z,-0.30
2018-12-14T02:35:41.430Z,-0.30
2018-12-14T02:38:09.886Z,-0.30
2018-12-14T02:40:39.073Z,-0.30
2018-12-14T02:43:07.499Z,-0.20
2018-12-14T02:45:36.491Z,-0.20
2018-12-14T02:48:04.889Z,-0.20
2018-12-14T02:50:33.419Z,-0.30
2018-12-14T02:53:02.209Z,-0.30
2018-12-14T02:55:31.132Z,-0.30
2018-12-14T02:57:59.660Z,-0.30
2018-12-14T03:00:28.403Z,-0.20
2018-12-14T03:02:57.104Z,-0.30
2018-12-14T03:05:25.971Z,-0.30
2018-12-14T03:07:54.385Z,-0.20
2018-12-14T03:10:23.021Z,-0.30
2018-12-14T03:12:51.703Z,-0.20
2018-12-14T03:15:20.357Z,-0.20
2018-12-14T03:17:48.977Z,-0.20
2018-12-14T03:20:17.667Z,-0.20
2018-12-14T03:22:46.195Z,-0.20
2018-12-14T03:25:14.680Z,-0.20
2018-12-14T03:27:44.060Z,-0.20
2018-12-14T03:30:12.748Z,-0.20
2018-12-14T03:32:41.578Z,-0.20
2018-12-14T03:35:10.142Z,-0.20
2018-12-14T03:37:38.669Z,-0.20
2018-12-14T03:40:07.197Z,-0.20
2018-12-14T03:42:35.623Z,-0.20
2018-12-14T03:45:05.631Z,-0.20
2018-12-14T03:47:34.247Z,-0.10
2018-12-14T03:50:03.008Z,-0.10
2018-12-14T03:52:32.027Z,-0.10
2018-12-14T03:55:00.713Z,-0.10
2018-12-14T03:57:30.273Z,-0.10
2018-12-14T03:59:58.772Z,0.00
2018-12-14T04:02:27.639Z,0.00
2018-12-14T04:04:56.142Z,0.10
2018-12-14T04:07:24.601Z,0.10
2018-12-14T04:09:53.982Z,0.10
2018-12-14T04:12:22.536Z,0.20
2018-12-14T04:14:51.081Z,0.20
2018-12-14T04:17:19.878Z,0.30
2018-12-14T04:22:23.802Z,0.30
2018-12-14T04:24:52.481Z,0.30
2018-12-14T04:27:21.344Z,0.30
2018-12-14T04:29:50.133Z,0.40
2018-12-14T04:32:18.930Z,0.40
2018-12-14T04:34:47.979Z,0.40
2018-12-14T04:37:16.666Z,0.50
2018-12-14T04:39:45.398Z,0.50
2018-12-14T04:42:13.986Z,0.50
2018-12-14T04:44:42.459Z,0.60
2018-12-14T04:47:11.600Z,0.60
2018-12-14T04:49:40.625Z,0.70
2018-12-14T04:52:11.132Z,0.70
2018-12-14T04:54:40.375Z,0.70
2018-12-14T04:57:09.187Z,0.70
2018-12-14T04:59:37.821Z,0.70
2018-12-14T05:02:06.813Z,0.70
2018-12-14T05:04:35.451Z,0.80
2018-12-14T05:07:04.396Z,0.80
2018-12-14T05:09:34.102Z,0.80
2018-12-14T05:12:02.755Z,0.80
2018-12-14T05:14:31.650Z,0.90
2018-12-14T05:17:00.525Z,0.80
2018-12-14T05:19:29.206Z,0.80
2018-12-14T05:21:58.654Z,0.80
2018-12-14T05:24:27.137Z,0.70
2018-12-14T05:26:59.764Z,0.70
2018-12-14T05:29:28.388Z,0.70
2018-12-14T05:31:57.176Z,0.60
2018-12-14T05:34:26.009Z,0.60
2018-12-14T05:36:55.267Z,0.50
2018-12-14T05:39:23.906Z,0.50
2018-12-14T05:41:52.393Z,0.50
2018-12-14T05:44:20.862Z,0.40
2018-12-14T05:46:50.137Z,0.40
2018-12-14T05:49:19.694Z,0.40
2018-12-14T05:51:48.381Z,0.40
2018-12-14T05:54:17.418Z,0.40
2018-12-14T05:56:45.894Z,0.40
2018-12-14T05:59:14.447Z,0.30
2018-12-14T06:01:43.235Z,0.30
2018-12-14T06:04:11.816Z,0.30
2018-12-14T06:06:41.291Z,0.30
2018-12-14T06:09:11.614Z,0.20
2018-12-14T06:11:40.054Z,0.20
2018-12-14T06:14:08.859Z,0.20
2018-12-14T06:16:37.725Z,0.20
2018-12-14T06:19:06.783Z,0.20
2018-12-14T06:21:35.257Z,0.10
2018-12-14T06:24:04.288Z,0.10
2018-12-14T06:26:32.774Z,0.10
2018-12-14T06:29:01.948Z,0.10
2018-12-14T06:31:31.252Z,0.10
2018-12-14T06:33:59.859Z,0.10
2018-12-14T06:36:28.448Z,0.10
2018-12-14T06:38:58.051Z,0.10
2018-12-14T06:41:26.855Z,0.10
2018-12-14T06:43:55.771Z,0.10
2018-12-14T06:46:24.971Z,0.10
2018-12-14T06:48:53.341Z,0.10
2018-12-14T06:51:21.759Z,0.30
2018-12-14T06:53:50.184Z,0.40
2018-12-14T06:56:18.883Z,0.40
2018-12-14T06:58:47.715Z,0.40
2018-12-14T07:01:16.537Z,0.60
2018-12-14T07:03:45.103Z,0.60
2018-12-14T07:06:13.717Z,0.50
2018-12-14T07:08:42.224Z,0.50
2018-12-14T07:11:10.940Z,0.50
2018-12-14T07:13:39.472Z,0.50
2018-12-14T07:16:07.986Z,0.50
2018-12-14T07:18:36.794Z,0.60
2018-12-14T07:21:07.502Z,0.60
2018-12-14T07:23:36.023Z,0.60
2018-12-14T07:26:04.761Z,0.60
2018-12-14T07:28:33.740Z,0.70
2018-12-14T07:31:02.609Z,0.70
2018-12-14T07:33:31.464Z,0.70
2018-12-14T07:36:00.022Z,0.70
2018-12-14T07:38:28.758Z,0.80
2018-12-14T07:40:57.220Z,0.80
2018-12-14T07:43:28.381Z,0.80
2018-12-14T07:45:56.477Z,0.80
2018-12-14T07:48:24.881Z,0.90
2018-12-14T07:50:53.640Z,0.90
2018-12-14T07:53:22.339Z,0.90
2018-12-14T07:55:50.749Z,0.90
2018-12-14T07:58:19.435Z,0.90
2018-12-14T08:00:48.132Z,0.90
2018-12-14T08:03:16.722Z,0.90
2018-12-14T08:05:45.311Z,0.90
2018-12-14T08:08:13.806Z,1.00
2018-12-14T08:10:42.418Z,1.00
2018-12-14T08:13:11.103Z,1.00
2018-12-14T08:15:39.578Z,1.00
2018-12-14T08:18:08.423Z,0.90
2018-12-14T08:20:37.284Z,0.90
2018-12-14T08:23:05.841Z,0.90
2018-12-14T08:25:34.392Z,0.90
2018-12-14T08:28:03.122Z,0.90
2018-12-14T08:30:31.602Z,0.90
2018-12-14T08:33:00.095Z,0.90
2018-12-14T08:35:28.523Z,0.90
2018-12-14T08:37:56.969Z,0.90
2018-12-14T08:40:25.729Z,0.90
2018-12-14T08:42:54.139Z,0.90
2018-12-14T08:45:23.421Z,0.90
2018-12-14T08:47:52.494Z,0.90
2018-12-14T08:50:21.002Z,0.90
2018-12-14T08:52:49.512Z,0.90
2018-12-14T08:55:27.916Z,0.90
2018-12-14T08:58:08.164Z,0.90
2018-12-14T09:00:37.386Z,0.90
2018-12-14T09:03:05.938Z,0.90
2018-12-14T09:05:34.567Z,1.00
2018-12-14T09:08:03.034Z,0.90
2018-12-14T09:10:31.684Z,0.90
2018-12-14T09:13:00.106Z,1.00
2018-12-14T09:15:28.676Z,1.20
2018-12-14T09:17:57.209Z,1.20
2018-12-14T09:20:25.732Z,1.20
2018-12-14T09:22:54.623Z,1.20
2018-12-14T09:25:23.190Z,1.20
2018-12-14T09:27:52.120Z,1.20
2018-12-14T09:30:21.529Z,1.20
2018-12-14T09:32:50.212Z,1.20
2018-12-14T09:35:18.668Z,1.20
2018-12-14T09:37:47.234Z,1.30
2018-12-14T09:40:15.906Z,1.30
2018-12-14T09:42:44.988Z,1.30
2018-12-14T09:45:14.873Z,1.30
2018-12-14T09:47:43.429Z,1.40
2018-12-14T09:50:12.038Z,1.50
2018-12-14T09:52:41.014Z,1.50
2018-12-14T09:55:09.576Z,1.50
2018-12-14T09:57:38.090Z,1.60
2018-12-14T10:00:07.369Z,1.60
2018-12-14T10:02:35.879Z,1.60
2018-12-14T10:05:04.980Z,1.50
2018-12-14T10:07:33.515Z,1.50
2018-12-14T10:10:02.387Z,1.50
2018-12-14T10:12:30.991Z,1.50
2018-12-14T10:14:59.526Z,1.50
2018-12-14T10:17:28.575Z,1.50
2018-12-14T10:19:57.098Z,1.40
2018-12-14T10:22:25.564Z,1.40
2018-12-14T10:24:53.969Z,1.40
2018-12-14T10:27:26.002Z,1.40
2018-12-14T10:29:54.493Z,1.50
2018-12-14T10:32:23.051Z,1.50
2018-12-14T10:34:51.662Z,1.60
2018-12-14T10:37:20.411Z,1.60
2018-12-14T10:39:49.071Z,1.60
2018-12-14T10:42:17.511Z,1.60
2018-12-14T10:44:46.042Z,1.70
2018-12-14T10:47:14.825Z,1.70
2018-12-14T10:49:43.733Z,1.70
2018-12-14T10:52:12.371Z,1.70
2018-12-14T10:54:41.398Z,1.80
2018-12-14T10:57:16.049Z,1.80
2018-12-14T10:59:40.527Z,1.80
2018-12-14T11:02:09.780Z,1.80
2018-12-14T11:04:38.317Z,1.90
2018-12-14T11:07:07.184Z,1.90
2018-12-14T11:09:36.419Z,1.90
2018-12-14T11:12:05.490Z,1.90
2018-12-14T11:14:33.939Z,2.00
2018-12-14T11:17:02.443Z,2.00
2018-12-14T11:19:30.970Z,2.00
2018-12-14T11:21:59.787Z,2.00
2018-12-14T11:24:28.369Z,2.00
2018-12-14T11:26:57.084Z,2.00
2018-12-14T11:29:25.666Z,2.10
2018-12-14T11:31:54.181Z,2.10
2018-12-14T11:34:29.558Z,2.10
2018-12-14T11:36:54.363Z,2.10
2018-12-14T11:39:23.255Z,2.10
2018-12-14T11:41:51.915Z,2.20
2018-12-14T11:44:22.163Z,2.20
2018-12-14T11:46:50.821Z,2.20
2018-12-14T11:49:19.489Z,2.20
2018-12-14T11:51:48.084Z,2.20
2018-12-14T11:54:17.585Z,2.20
2018-12-14T11:56:46.483Z,2.20
2018-12-14T11:59:15.025Z,2.20
2018-12-14T12:01:43.459Z,2.20
2018-12-14T12:04:11.991Z,2.20
2018-12-14T12:06:40.487Z,2.20
2018-12-14T12:09:12.149Z,2.30
2018-12-14T12:11:40.803Z,2.30
2018-12-14T12:14:09.327Z,2.30
2018-12-14T12:16:37.900Z,2.30
2018-12-14T12:19:07.026Z,2.30
2018-12-14T12:21:35.763Z,2.30
2018-12-14T12:24:04.478Z,2.30
2018-12-14T12:26:33.998Z,2.30
2018-12-14T12:29:02.642Z,2.30
2018-12-14T12:31:31.214Z,2.30
2018-12-14T12:33:59.833Z,2.30
2018-12-14T12:36:28.344Z,2.30
2018-12-14T12:38:56.868Z,2.40
2018-12-14T12:41:25.386Z,2.40
2018-12-14T12:43:54.071Z,2.40
2018-12-14T12:46:22.688Z,2.40
2018-12-14T12:48:51.439Z,2.50
2018-12-14T12:51:20.494Z,2.50
2018-12-14T12:53:49.031Z,2.50
2018-12-14T12:56:17.652Z,2.50
2018-12-14T12:58:46.148Z,2.50
2018-12-14T13:01:14.666Z,2.50
2018-12-14T13:03:43.258Z,2.50
2018-12-14T13:06:11.746Z,2.50
2018-12-14T13:08:40.228Z,2.50
2018-12-14T13:11:09.179Z,2.50
2018-12-14T13:13:37.977Z,2.60
2018-12-14T13:16:06.481Z,2.60
2018-12-14T13:18:36.550Z,2.60
2018-12-14T13:21:05.214Z,2.60
2018-12-14T13:23:33.700Z,2.60
2018-12-14T13:26:02.392Z,2.60
2018-12-14T13:28:31.514Z,2.60
2018-12-14T13:31:00.140Z,2.60
2018-12-14T13:33:28.969Z,2.60
2018-12-14T13:35:57.766Z,2.60
2018-12-14T13:38:26.586Z,2.60
2018-12-14T13:40:55.547Z,2.60
2018-12-14T13:43:24.386Z,2.60
2018-12-14T13:45:53.493Z,2.60
2018-12-14T13:48:22.243Z,2.60
2018-12-14T13:50:50.964Z,2.60
2018-12-14T13:53:19.525Z,2.50
2018-12-14T13:55:48.197Z,2.50
2018-12-14T13:58:16.699Z,2.50
2018-12-14T14:00:45.391Z,2.50
2018-12-14T14:03:14.126Z,2.50
2018-12-14T14:05:42.756Z,2.40
2018-12-14T14:08:11.382Z,2.40
2018-12-14T14:10:40.038Z,2.40
2018-12-14T14:13:08.798Z,2.30
2018-12-14T14:15:37.550Z,2.30
2018-12-14T14:18:07.889Z,2.20
2018-12-14T14:20:36.473Z,2.20
2018-12-14T14:23:04.997Z,2.20
2018-12-14T14:25:33.928Z,2.20
2018-12-14T14:28:03.047Z,2.10
2018-12-14T14:30:31.645Z,2.10
2018-12-14T14:33:00.318Z,2.10
2018-12-14T14:35:28.770Z,2.10
2018-12-14T14:37:57.660Z,2.10
2018-12-14T14:40:26.278Z,2.00
2018-12-14T14:42:54.723Z,2.00
2018-12-14T14:45:23.776Z,2.00
2018-12-14T14:47:52.611Z,2.00
2018-12-14T14:50:21.147Z,2.00
2018-12-14T14:52:49.739Z,2.00
2018-12-14T14:55:18.216Z,2.00
2018-12-14T14:57:47.414Z,2.00
2018-12-14T15:00:16.511Z,2.00
2018-12-14T15:02:45.157Z,2.00
2018-12-14T15:05:13.958Z,2.00
2018-12-14T15:07:42.566Z,2.00
2018-12-14T15:10:11.046Z,2.00
2018-12-14T15:12:39.588Z,2.10
2018-12-14T15:15:08.345Z,2.10
2018-12-14T15:17:36.974Z,2.10
2018-12-14T15:20:05.725Z,2.10
2018-12-14T15:22:34.336Z,2.10
2018-12-14T15:25:03.014Z,2.10
2018-12-14T15:27:32.406Z,2.10
2018-12-14T15:30:00.895Z,2.10
2018-12-14T15:32:29.533Z,2.10
2018-12-14T15:34:59.288Z,2.10
2018-12-14T15:37:28.111Z,2.10
2018-12-14T15:39:56.933Z,2.10
2018-12-14T15:42:25.470Z,2.10
2018-12-14T15:44:54.026Z,2.20
2018-12-14T15:47:22.447Z,2.10
2018-12-14T15:49:51.029Z,2.10
2018-12-14T15:52:19.528Z,2.10
2018-12-14T15:54:48.789Z,2.10
2018-12-14T15:57:17.333Z,2.10
2018-12-14T15:59:45.909Z,2.10
2018-12-14T16:02:14.353Z,2.10
2018-12-14T16:04:43.663Z,2.10
2018-12-14T16:07:12.178Z,2.10
2018-12-14T16:09:40.544Z,2.10
2018-12-14T16:12:09.688Z,2.10
2018-12-14T16:14:38.500Z,2.10
2018-12-14T16:17:08.627Z,2.10
2018-12-14T16:19:37.894Z,2.20
2018-12-14T16:22:06.849Z,2.20
2018-12-14T16:24:35.884Z,2.10
2018-12-14T16:27:04.681Z,2.10
2018-12-14T16:29:33.287Z,2.10
2018-12-14T16:32:01.952Z,2.10
2018-12-14T16:34:30.832Z,2.10
2018-12-14T16:37:00.341Z,2.20
2018-12-14T16:39:29.037Z,2.20
2018-12-14T16:41:57.461Z,2.20
2018-12-14T16:44:26.115Z,2.20
2018-12-14T16:46:54.595Z,2.20
2018-12-14T16:49:23.125Z,2.20
2018-12-14T16:51:51.607Z,2.20
2018-12-14T16:54:27.691Z,2.20
2018-12-14T16:56:56.622Z,2.20
2018-12-14T16:59:25.545Z,2.20
2018-12-14T17:01:54.161Z,2.20
2018-12-14T17:04:22.898Z,2.10
2018-12-14T17:06:52.417Z,2.10
2018-12-14T17:09:21.637Z,2.10
2018-12-14T17:11:50.573Z,2.00
2018-12-14T17:14:19.301Z,2.00
2018-12-14T17:16:47.865Z,2.00
2018-12-14T17:19:16.453Z,1.90
2018-12-14T17:21:45.685Z,1.90
2018-12-14T17:24:14.564Z,1.90
2018-12-14T17:26:43.381Z,1.80
2018-12-14T17:29:12.474Z,1.80
2018-12-14T17:31:40.895Z,1.80
2018-12-14T17:34:09.518Z,1.80
2018-12-14T17:36:38.358Z,1.80
2018-12-14T17:39:07.616Z,1.80
2018-12-14T17:41:36.219Z,1.80
2018-12-14T17:44:05.304Z,1.80
2018-12-14T17:46:34.479Z,1.80
2018-12-14T17:49:03.365Z,1.80
2018-12-14T17:51:32.906Z,1.80
2018-12-14T17:54:02.373Z,1.90
2018-12-14T17:56:31.264Z,1.90
2018-12-14T17:58:59.828Z,1.90
2018-12-14T18:01:28.738Z,1.90
2018-12-14T18:03:57.266Z,1.90
2018-12-14T18:06:26.115Z,1.90
2018-12-14T18:08:54.617Z,1.90
2018-12-14T18:11:23.531Z,1.90
2018-12-14T18:13:52.229Z,1.90
2018-12-14T18:16:20.867Z,1.90
2018-12-14T18:18:50.006Z,1.90
2018-12-14T18:21:18.706Z,1.90
2018-12-14T18:23:47.444Z,1.90
2018-12-14T18:26:16.702Z,1.90
2018-12-14T18:28:45.646Z,2.00
2018-12-14T18:31:14.337Z,2.00
2018-12-14T18:33:42.731Z,2.00
2018-12-14T18:36:11.357Z,2.00
2018-12-14T18:38:40.202Z,2.00
2018-12-14T18:41:09.783Z,2.00
2018-12-14T18:43:38.367Z,1.90
2018-12-14T18:46:07.049Z,2.00
2018-12-14T18:48:35.740Z,2.00
2018-12-14T18:51:04.441Z,1.90
2018-12-14T18:53:33.005Z,1.90
2018-12-14T18:56:01.630Z,1.90
2018-12-14T18:58:31.127Z,1.90
2018-12-14T19:00:59.949Z,1.90
2018-12-14T19:03:28.701Z,1.90
2018-12-14T19:05:57.222Z,1.90
2018-12-14T19:08:25.920Z,1.90
2018-12-14T19:10:54.551Z,1.80
2018-12-14T19:13:23.315Z,1.80
2018-12-14T19:15:51.956Z,1.80
2018-12-14T19:18:20.368Z,1.80
2018-12-14T19:20:48.873Z,1.80
2018-12-14T19:23:19.751Z,1.90
2018-12-14T19:25:47.992Z,1.90
2018-12-14T19:28:16.657Z,1.90
2018-12-14T19:30:45.107Z,1.80
2018-12-14T19:33:13.502Z,1.80
2018-12-14T19:35:41.908Z,1.80
2018-12-14T19:38:10.338Z,1.90
2018-12-14T19:40:38.763Z,1.90
2018-12-14T19:43:07.211Z,1.90
2018-12-14T19:45:35.651Z,1.90
2018-12-14T19:48:04.281Z,1.90
2018-12-14T19:50:32.708Z,1.90
2018-12-14T19:53:01.122Z,1.90
2018-12-14T19:55:29.538Z,1.90
2018-12-14T19:57:58.376Z,1.90
2018-12-14T20:00:27.885Z,1.90
2018-12-14T20:02:56.710Z,1.90
2018-12-14T20:05:25.661Z,1.90
2018-12-14T20:07:54.167Z,1.80
2018-12-14T20:10:22.779Z,1.80
2018-12-14T20:12:51.345Z,1.80
2018-12-14T20:15:20.140Z,1.80
2018-12-14T20:17:48.565Z,1.90
2018-12-14T20:20:17.036Z,1.90
2018-12-14T20:22:45.558Z,1.90
2018-12-14T20:25:14.069Z,1.90
2018-12-14T20:27:43.247Z,1.90
2018-12-14T20:30:11.717Z,1.90
2018-12-14T20:32:40.146Z,1.90
2018-12-14T20:35:09.147Z,1.90
2018-12-14T20:37:38.110Z,1.90
2018-12-14T20:40:07.000Z,1.90
2018-12-14T20:42:35.462Z,1.90
2018-12-14T20:45:04.553Z,1.90
2018-12-14T20:47:32.948Z,1.90
2018-12-14T20:50:01.593Z,1.80
2018-12-14T20:52:30.051Z,1.90
2018-12-14T20:54:58.922Z,1.80
2018-12-14T20:57:27.388Z,1.80
2018-12-14T20:59:55.867Z,1.90
2018-12-14T21:02:24.337Z,1.90
2018-12-14T21:04:52.785Z,1.90
2018-12-14T21:07:21.408Z,1.90
2018-12-14T21:09:49.772Z,1.90
2018-12-14T21:12:18.394Z,1.90
2018-12-14T21:14:50.731Z,1.80
2018-12-14T21:17:17.316Z,1.90
2018-12-14T21:19:45.796Z,1.80
2018-12-14T21:22:15.213Z,1.90
2018-12-14T21:24:43.870Z,1.90
2018-12-14T21:27:17.757Z,1.90
2018-12-14T21:29:46.786Z,1.90
2018-12-14T21:32:15.580Z,1.90
2018-12-14T21:34:43.970Z,1.90
2018-12-14T21:37:12.737Z,1.90
2018-12-14T21:39:41.511Z,1.90
2018-12-14T21:42:09.991Z,1.90
2018-12-14T21:44:38.581Z,1.90
2018-12-14T21:47:08.063Z,1.90
2018-12-14T21:49:36.890Z,1.90
2018-12-14T21:52:05.352Z,1.90
2018-12-14T21:54:34.504Z,1.90
2018-12-14T21:57:03.243Z,1.90
2018-12-14T21:59:31.740Z,1.90
2018-12-14T22:02:00.251Z,1.90
2018-12-14T22:04:29.098Z,1.90
2018-12-14T22:06:58.198Z,1.90
2018-12-14T22:09:26.583Z,1.90
2018-12-14T22:11:55.270Z,1.90
2018-12-14T22:14:23.744Z,1.90
2018-12-14T22:16:52.293Z,1.90
2018-12-14T22:19:21.390Z,1.90
2018-12-14T22:21:49.745Z,1.90
2018-12-14T22:24:18.825Z,1.90
2018-12-14T22:26:47.401Z,1.90
2018-12-14T22:29:15.938Z,1.90
2018-12-14T22:31:44.475Z,1.90
2018-12-14T22:34:12.984Z,1.90
2018-12-14T22:36:41.844Z,1.90
2018-12-14T22:39:10.307Z,1.90
2018-12-14T22:41:38.989Z,1.80
2018-12-14T22:44:07.519Z,1.90
2018-12-14T22:46:36.116Z,1.90
2018-12-14T22:49:04.582Z,1.90
2018-12-14T22:51:33.048Z,1.90
2018-12-14T22:54:01.657Z,1.90
2018-12-14T22:56:30.880Z,1.90
2018-12-14T22:58:59.774Z,1.90
2018-12-14T23:01:28.668Z,1.90
2018-12-14T23:03:57.587Z,1.90
2018-12-14T23:06:26.070Z,1.90
2018-12-14T23:08:54.580Z,1.90
2018-12-14T23:11:23.485Z,1.90
2018-12-14T23:13:51.907Z,1.90
2018-12-14T23:16:20.443Z,1.90
2018-12-14T23:18:49.546Z,1.90
2018-12-14T23:21:18.994Z,1.90
2018-12-14T23:23:47.708Z,1.90
2018-12-14T23:26:17.025Z,1.90
2018-12-14T23:28:45.609Z,1.90
2018-12-14T23:31:14.167Z,1.90
2018-12-14T23:33:42.949Z,1.90
2018-12-14T23:36:11.841Z,1.90
2018-12-14T23:38:40.490Z,1.90
2018-12-14T23:41:09.008Z,1.90
2018-12-14T23:43:37.580Z,1.80
2018-12-14T23:46:06.113Z,1.80
2018-12-14T23:48:34.665Z,1.80
2018-12-14T23:51:03.545Z,1.80
2018-12-14T23:53:32.155Z,1.80
2018-12-14T23:56:00.791Z,1.80
2018-12-14T23:58:29.601Z,1.80
